Time;durP1;ratioP1;P1;durP2;ratioP2;P2;SDS_P1;SDS_P2;PMS_P1;PMS_P2;Temp;Humidity;BMP_temperature;BMP_pressure;BME280_temperature;BME280_humidity;BME280_pressure;Samples;Min_cycle;Max_cycle;Signal;HPM_P1;HPM_P2
2022/04/28 00:00:24;;;;;;;23.40;11.07;;;;;;;5.03;83.88;102980.47;10359577;28;20120;-74
2022/04/28 00:05:24;;;;;;;14.27;9.77;;;;;;;5.03;84.35;102985.84;10358267;28;20126;-74
2022/04/28 00:10:25;;;;;;;11.70;9.25;;;;;;;4.98;84.26;102992.50;10376533;28;20586;-74
2022/04/28 00:15:25;;;;;;;19.17;9.55;;;;;;;4.97;84.03;102993.47;10375989;28;20038;-74
2022/04/28 00:20:26;;;;;;;18.83;9.48;;;;;;;4.91;84.19;102992.09;10376108;28;20533;-74
2022/04/28 00:25:26;;;;;;;19.10;9.93;;;;;;;4.89;84.54;102984.16;10377008;28;20053;-74
2022/04/28 00:30:26;;;;;;;22.45;10.57;;;;;;;4.84;84.46;102980.94;10375774;28;20045;-74
2022/04/28 00:35:27;;;;;;;16.13;11.15;;;;;;;4.81;85.27;102982.97;10376168;28;20065;-74
2022/04/28 00:40:27;;;;;;;17.45;9.60;;;;;;;4.80;85.08;102984.81;10358833;28;20030;-74
2022/04/28 00:45:28;;;;;;;19.70;10.80;;;;;;;4.75;85.31;102986.09;10375370;28;20057;-74
2022/04/28 00:50:41;;;;;;;15.38;10.38;;;;;;;4.70;85.33;102978.38;10375242;28;20041;-74
2022/04/28 00:55:41;;;;;;;13.20;10.55;;;;;;;4.63;85.42;102985.16;10359525;28;20033;-74
2022/04/28 01:00:42;;;;;;;20.20;10.50;;;;;;;4.56;84.68;102974.00;10374496;28;20414;-74
2022/04/28 01:05:43;;;;;;;23.55;10.90;;;;;;;4.48;85.06;102984.38;10357468;28;20053;-74
2022/04/28 01:10:43;;;;;;;16.45;10.68;;;;;;;4.43;85.16;102974.00;10375561;28;20121;-74
2022/04/28 01:15:47;;;;;;;22.25;10.25;;;;;;;4.42;85.27;102976.75;10373727;28;20074;-74
2022/04/28 01:20:48;;;;;;;24.63;12.88;;;;;;;4.39;85.20;102975.13;10374684;28;20052;-74
2022/04/28 01:25:48;;;;;;;24.52;10.68;;;;;;;4.35;85.21;102979.00;10375217;28;20496;-74
2022/04/28 01:30:49;;;;;;;24.23;12.25;;;;;;;4.27;85.58;102978.66;10382360;28;20116;-74
2022/04/28 01:35:49;;;;;;;19.27;11.27;;;;;;;4.26;85.41;102979.63;10364798;28;20080;-74
2022/04/28 01:40:49;;;;;;;20.40;11.85;;;;;;;4.27;85.22;102984.03;10366430;28;20030;-74
2022/04/28 01:45:50;;;;;;;12.77;10.57;;;;;;;4.21;85.21;102979.09;10380763;28;20105;-74
2022/04/28 01:56:09;;;;;;;19.10;10.73;;;;;;;4.22;85.20;102983.50;10389266;28;20112;-74
2022/04/28 02:01:10;;;;;;;21.73;9.95;;;;;;;4.24;85.30;102984.25;10348926;28;20125;-74
2022/04/28 02:06:10;;;;;;;16.10;10.13;;;;;;;4.26;85.53;102978.78;10382218;28;20355;-74
2022/04/28 02:11:11;;;;;;;16.92;10.35;;;;;;;4.26;85.81;102982.31;10375077;28;20045;-74
2022/04/28 02:16:11;;;;;;;28.77;12.55;;;;;;;4.27;86.01;102986.72;10393134;28;20042;-74
2022/04/28 02:21:12;;;;;;;12.73;10.80;;;;;;;4.29;85.84;102987.47;10385688;28;20069;-74
2022/04/28 02:26:12;;;;;;;15.93;9.98;;;;;;;4.24;85.67;102992.28;10379425;28;20112;-74
2022/04/28 02:31:13;;;;;;;17.88;11.00;;;;;;;4.27;86.32;102989.41;10380358;28;20149;-74
2022/04/28 02:36:13;;;;;;;13.88;8.77;;;;;;;4.30;86.28;102988.31;10362587;28;20383;-74
2022/04/28 02:41:19;;;;;;;17.52;11.02;;;;;;;4.22;85.82;102982.66;10378489;28;20041;-74
2022/04/28 02:46:20;;;;;;;13.57;9.32;;;;;;;4.19;86.25;102986.41;10362462;28;20060;-74
2022/04/28 02:51:20;;;;;;;31.98;11.70;;;;;;;4.22;86.45;102985.34;10379347;28;20044;-74
2022/04/28 02:56:21;;;;;;;16.08;11.57;;;;;;;4.30;89.13;102989.19;10379101;28;20504;-74
2022/04/28 03:01:22;;;;;;;13.35;11.43;;;;;;;4.33;89.22;102988.13;10378484;28;20080;-74
2022/04/28 03:11:42;;;;;;;23.85;11.32;;;;;;;4.46;91.88;102982.78;10378029;28;20038;-73
2022/04/28 03:16:42;;;;;;;18.02;13.50;;;;;;;4.43;90.84;102984.72;10377918;28;20069;-74
2022/04/28 03:21:43;;;;;;;15.80;11.18;;;;;;;4.41;90.23;102978.59;10360809;28;20041;-74
2022/04/28 03:26:43;;;;;;;22.83;12.27;;;;;;;4.40;92.76;102984.94;10377562;28;20421;-74
2022/04/28 03:31:43;;;;;;;17.20;12.90;;;;;;;4.43;92.05;102991.88;10376758;28;20038;-74
2022/04/28 03:36:50;;;;;;;16.98;10.90;;;;;;;4.39;91.88;102985.88;10360165;28;20490;-74
2022/04/28 03:41:51;;;;;;;17.95;10.98;;;;;;;4.42;91.65;102985.66;10377060;28;20038;-74
2022/04/28 03:46:51;;;;;;;15.38;12.18;;;;;;;4.34;91.48;102979.97;10376127;28;20050;-74
2022/04/28 03:51:51;;;;;;;18.13;12.90;;;;;;;4.32;92.05;102978.38;10359444;28;20034;-74
2022/04/28 03:56:52;;;;;;;31.70;13.55;;;;;;;4.30;91.77;102981.13;10358830;28;20117;-74
2022/04/28 04:01:52;;;;;;;20.88;13.98;;;;;;;4.29;92.12;102983.94;10359271;28;20494;-74
2022/04/28 04:06:53;;;;;;;21.40;15.13;;;;;;;4.26;92.10;102982.31;10360302;28;20105;-74
2022/04/28 04:11:53;;;;;;;20.48;15.27;;;;;;;4.24;91.83;102992.28;10359945;28;20065;-74
2022/04/28 04:16:53;;;;;;;19.00;12.77;;;;;;;4.23;92.21;102989.72;10360916;28;20038;-74
2022/04/28 04:21:54;;;;;;;32.55;13.57;;;;;;;4.26;92.92;102987.69;10376284;28;20366;-73
2022/04/28 04:26:54;;;;;;;30.88;14.77;;;;;;;4.31;91.87;103000.78;10358926;28;20168;-74
2022/04/28 04:37:14;;;;;;;19.55;14.23;;;;;;;4.37;91.68;103003.91;10382768;28;20034;-74
2022/04/28 04:42:15;;;;;;;15.60;12.45;;;;;;;4.40;91.22;103011.75;10376072;28;20466;-75
2022/04/28 04:47:15;;;;;;;22.73;14.65;;;;;;;4.42;91.58;103014.31;10375147;28;20520;-75
2022/04/28 04:52:16;;;;;;;23.83;13.93;;;;;;;4.48;91.09;103026.47;10375988;28;20084;-74
2022/04/28 04:57:16;;;;;;;21.50;13.13;;;;;;;4.52;91.63;103033.31;10375723;28;20056;-78
2022/04/28 05:02:17;;;;;;;25.48;15.52;;;;;;;4.61;92.10;103038.06;10380829;28;20077;-75
2022/04/28 05:07:17;;;;;;;27.83;15.75;;;;;;;4.76;92.21;103037.00;10389860;28;20034;-75
2022/04/28 05:12:18;;;;;;;28.23;14.60;;;;;;;4.84;91.50;103033.75;10337326;28;20092;-75
2022/04/28 05:17:18;;;;;;;21.08;14.00;;;;;;;4.96;92.97;103035.59;10388256;28;20040;-76
2022/04/28 05:22:18;;;;;;;18.17;14.18;;;;;;;5.13;94.31;103045.97;10389513;28;20129;-75
2022/04/28 05:27:19;;;;;;;18.08;13.93;;;;;;;5.35;95.75;103055.19;10386230;28;20030;-75
2022/04/28 05:32:19;;;;;;;23.08;12.90;;;;;;;6.29;95.39;103063.50;10386980;28;20038;-74
2022/04/28 05:37:20;;;;;;;23.10;14.15;;;;;;;7.48;93.36;103070.41;10385994;28;20165;-75
2022/04/28 05:42:20;;;;;;;40.80;12.25;;;;;;;8.19;93.22;103071.69;10369754;28;20463;-75
2022/04/28 05:47:21;;;;;;;14.38;11.32;;;;;;;8.87;92.20;103080.34;10386289;28;20057;-75
2022/04/28 05:52:22;;;;;;;17.70;10.30;;;;;;;9.34;94.28;103088.81;10387636;28;20064;-75
2022/04/28 05:57:22;;;;;;;12.80;8.85;;;;;;;9.82;93.99;103088.13;10386240;28;20466;-75
2022/04/28 06:02:23;;;;;;;18.58;9.50;;;;;;;10.34;93.66;103102.38;10392121;28;20042;-75
2022/04/28 06:07:24;;;;;;;9.60;7.28;;;;;;;11.05;91.34;103107.41;10393527;28;20030;-75
2022/04/28 06:12:26;;;;;;;12.13;7.20;;;;;;;11.28;91.08;103118.75;10373659;28;20084;-75
2022/04/28 06:17:26;;;;;;;12.23;6.32;;;;;;;11.45;88.55;103117.13;10381913;28;20510;-75
2022/04/28 06:22:26;;;;;;;6.63;5.95;;;;;;;11.77;87.50;103123.97;10380405;28;20040;-75
2022/04/28 06:27:30;;;;;;;14.23;6.40;;;;;;;12.03;83.57;103126.88;10378861;28;20033;-75
2022/04/28 06:32:30;;;;;;;12.63;7.22;;;;;;;12.32;76.00;103127.53;10364207;28;20038;-75
2022/04/28 06:37:31;;;;;;;8.18;7.43;;;;;;;12.65;74.43;103129.69;10379567;28;20038;-75
2022/04/28 06:42:31;;;;;;;12.45;7.65;;;;;;;12.99;71.29;103140.66;10380075;28;20051;-76
2022/04/28 06:47:31;;;;;;;7.93;5.88;;;;;;;13.25;65.78;103136.13;10380042;28;20065;-75
2022/04/28 06:52:37;;;;;;;12.73;6.30;;;;;;;13.23;64.59;103132.66;10379447;28;20180;-75
2022/04/28 06:57:38;;;;;;;7.32;5.47;;;;;;;13.67;64.35;103146.19;10379961;28;20053;-75
2022/04/28 07:02:38;;;;;;;8.70;5.53;;;;;;;14.08;60.58;103143.63;10378950;28;20069;-75
2022/04/28 07:07:38;;;;;;;12.93;6.18;;;;;;;13.75;59.86;103148.09;10378991;28;20033;-75
2022/04/28 07:12:42;;;;;;;9.48;4.82;;;;;;;14.17;60.93;103163.59;10381182;28;20069;-75
2022/04/28 07:17:43;;;;;;;9.77;4.43;;;;;;;14.59;57.23;103158.06;10386910;28;20046;-75
2022/04/28 07:22:43;;;;;;;10.65;4.28;;;;;;;14.94;59.29;103166.09;10370658;28;20037;-75
2022/04/28 07:27:43;;;;;;;5.75;4.65;;;;;;;15.20;54.32;103171.38;10378653;28;20067;-75
2022/04/28 07:32:44;;;;;;;8.75;5.18;;;;;;;15.38;55.03;103169.28;10376201;28;20045;-76
2022/04/28 07:37:45;;;;;;;13.13;4.80;;;;;;;15.22;53.78;103169.28;10377724;28;20037;-76
2022/04/28 07:42:45;;;;;;;11.23;4.70;;;;;;;15.52;53.24;103174.03;10359810;28;20137;-76
2022/04/28 07:47:45;;;;;;;12.05;4.05;;;;;;;15.56;51.94;103182.72;10378736;28;20069;-75
2022/04/28 07:52:46;;;;;;;6.20;4.47;;;;;;;15.91;51.22;103189.63;10376992;28;20045;-75
2022/04/28 07:57:46;;;;;;;13.10;4.57;;;;;;;16.28;52.57;103177.16;10376741;28;20057;-76
2022/04/28 08:02:47;;;;;;;5.55;4.05;;;;;;;17.15;47.62;103169.47;10376202;28;20042;-75
2022/04/28 08:07:47;;;;;;;5.07;3.75;;;;;;;16.84;48.88;103185.16;10342986;28;20077;-76
2022/04/28 08:12:48;;;;;;;7.30;4.10;;;;;;;16.71;49.30;103180.25;10376271;28;20497;-76
2022/04/28 08:17:48;;;;;;;10.05;4.20;;;;;;;16.11;47.34;103191.91;10376891;28;20386;-76
2022/04/28 08:22:48;;;;;;;3.35;3.00;;;;;;;16.23;48.25;103190.50;10376542;28;20073;-76
2022/04/28 08:27:49;;;;;;;3.63;3.33;;;;;;;16.39;48.60;103181.34;10375489;28;20038;-76
2022/04/28 08:32:49;;;;;;;8.10;4.75;;;;;;;17.34;48.09;103183.69;10357783;28;20034;-76
2022/04/28 08:37:50;;;;;;;9.82;5.13;;;;;;;17.98;45.95;103181.25;10374366;28;20034;-76
2022/04/28 08:42:50;;;;;;;3.92;3.60;;;;;;;18.44;44.78;103180.09;10375208;28;20128;-77
2022/04/28 08:47:50;;;;;;;6.95;4.30;;;;;;;18.49;43.22;103174.88;10375079;28;20060;-77
2022/04/28 08:52:53;;;;;;;12.50;4.20;;;;;;;18.29;41.84;103178.25;10357847;28;20466;-76
2022/04/28 08:57:54;;;;;;;4.28;3.35;;;;;;;17.69;43.85;103171.13;10357790;28;20033;-76
2022/04/28 09:02:54;;;;;;;3.88;3.58;;;;;;;17.18;46.22;103171.84;10374173;28;20042;-76
2022/04/28 09:07:55;;;;;;;9.13;4.60;;;;;;;18.17;46.16;103168.81;10357896;28;20117;-77
2022/04/28 09:14:09;;;;;;;5.82;4.43;;;;;;;19.59;46.89;103168.84;10341623;28;20034;-77
2022/04/28 09:18:21;;;;;;;6.38;3.95;;;;;;;19.59;41.62;103160.63;10359947;28;20037;-76
2022/04/28 09:23:22;;;;;;;5.70;4.88;;;;;;;18.75;41.60;103153.22;10373663;28;20038;-76
2022/04/28 09:28:22;;;;;;;5.57;4.22;;;;;;;18.43;43.05;103162.78;10374715;28;20038;-77
2022/04/28 09:33:24;;;;;;;8.68;5.18;;;;;;;18.78;43.07;103150.06;10341903;28;20034;-77
2022/04/28 09:38:24;;;;;;;5.22;4.47;;;;;;;19.26;42.15;103154.88;10357531;28;20030;-77
2022/04/28 09:43:25;;;;;;;10.32;4.38;;;;;;;19.67;41.57;103143.97;10356972;28;20054;-77
2022/04/28 09:48:29;;;;;;;6.13;4.45;;;;;;;19.55;41.93;103161.19;10379395;28;20057;-76
2022/04/28 09:53:30;;;;;;;7.20;4.80;;;;;;;19.48;39.04;103156.50;10395173;28;20038;-76
2022/04/28 09:58:31;;;;;;;10.27;5.07;;;;;;;18.80;42.78;103152.63;10382253;28;20089;-76
2022/04/28 10:03:33;;;;;;;8.30;3.75;;;;;;;19.50;38.27;103145.34;10377058;28;20065;-77
2022/04/28 10:08:34;;;;;;;4.10;3.55;;;;;;;18.74;40.09;103142.44;10374864;28;20034;-77
2022/04/28 10:13:34;;;;;;;10.95;5.47;;;;;;;18.93;40.01;103143.66;10372345;28;20455;-77
2022/04/28 10:19:08;;;;;;;6.43;4.15;;;;;;;19.09;39.79;103146.13;10364178;28;20121;-77
2022/04/28 10:35:05;;;;;;;7.93;5.20;;;;;;;19.52;39.65;103156.94;10379350;28;20496;-77
2022/04/28 10:40:07;;;;;;;4.43;3.20;;;;;;;19.80;41.12;103153.34;10379321;28;20060;-76
2022/04/28 10:45:30;;;;;;;4.82;4.40;;;;;;;19.45;39.60;103151.41;10361431;28;20057;-77
2022/04/28 10:50:33;;;;;;;7.70;5.35;;;;;;;19.37;40.26;103145.22;10362072;28;20438;-77
2022/04/28 10:55:44;;;;;;;13.32;4.85;;;;;;;20.20;38.37;103144.19;10379365;28;20037;-76
2022/04/28 11:00:58;;;;;;;4.35;3.88;;;;;;;20.43;38.98;103145.72;10362230;28;20038;-77
2022/04/28 11:05:58;;;;;;;4.45;4.00;;;;;;;21.21;40.19;103134.09;10361573;28;20113;-77
2022/04/28 11:11:03;;;;;;;5.07;4.57;;;;;;;21.64;38.55;103133.63;10377864;28;20030;-77
2022/04/28 11:16:04;;;;;;;7.90;4.18;;;;;;;20.97;35.87;103139.22;10344998;28;20030;-77
2022/04/28 11:21:05;;;;;;;13.45;5.20;;;;;;;21.11;36.33;103131.78;10361050;28;20409;-77
2022/04/28 11:26:06;;;;;;;13.27;5.78;;;;;;;20.61;36.76;103142.38;10377731;28;20533;-77
2022/04/28 11:31:14;;;;;;;8.90;4.13;;;;;;;20.93;36.18;103135.22;10378011;28;20132;-77
2022/04/28 11:36:21;;;;;;;4.18;3.65;;;;;;;20.97;37.01;103130.13;10329098;28;20093;-77
2022/04/28 11:41:33;;;;;;;5.68;4.03;;;;;;;20.53;36.06;103128.81;10377809;28;20068;-77
2022/04/28 11:46:34;;;;;;;4.30;3.58;;;;;;;20.21;37.54;103126.63;10377131;28;20100;-77
2022/04/28 11:51:35;;;;;;;5.72;4.35;;;;;;;19.87;36.27;103126.72;10359469;28;20470;-77
2022/04/28 11:56:35;;;;;;;8.45;4.53;;;;;;;19.13;39.65;103125.44;10376021;28;20034;-77
2022/04/28 12:01:36;;;;;;;7.15;5.35;;;;;;;20.02;37.06;103143.06;10359436;28;20497;-77
2022/04/28 12:06:37;;;;;;;8.15;4.95;;;;;;;20.05;35.87;103129.75;10377037;28;20121;-77
2022/04/28 12:22:44;;;;;;;6.78;4.60;;;;;;;20.71;38.96;103128.19;10361965;28;20030;-77
2022/04/28 12:27:52;;;;;;;9.30;4.35;;;;;;;21.67;36.90;103100.09;10356058;28;20100;-77
2022/04/28 12:32:54;;;;;;;10.90;5.18;;;;;;;20.81;37.44;103117.63;10374836;28;20026;-77
2022/04/28 12:37:59;;;;;;;6.63;4.28;;;;;;;21.60;38.84;103111.13;10342221;28;20038;-77
2022/04/28 12:42:59;;;;;;;6.93;5.35;;;;;;;21.29;37.05;103114.59;10379898;28;20042;-76
2022/04/28 12:48:00;;;;;;;11.18;5.70;;;;;;;21.26;36.68;103126.06;10373390;28;20037;-77
2022/04/28 12:53:02;;;;;;;12.30;5.30;;;;;;;21.04;35.49;103117.19;10347483;28;20485;-77
2022/04/28 12:58:03;;;;;;;17.27;5.75;;;;;;;20.34;35.96;103122.19;10374286;28;20033;-77
2022/04/28 13:03:06;;;;;;;5.60;4.63;;;;;;;20.41;39.07;103123.91;10373723;28;20026;-77
2022/04/28 13:08:07;;;;;;;6.40;5.90;;;;;;;20.22;38.04;103116.44;10376610;28;20105;-77
2022/04/28 13:13:08;;;;;;;7.15;5.97;;;;;;;19.78;37.16;103119.69;10374863;28;20030;-77
2022/04/28 13:18:08;;;;;;;18.85;7.40;;;;;;;19.11;40.06;103111.03;10356779;28;20081;-77
2022/04/28 13:23:18;;;;;;;9.00;4.82;;;;;;;20.14;39.33;103111.16;10377535;28;20069;-77
2022/04/28 13:34:17;;;;;;;9.65;6.57;;;;;;;20.78;37.55;103098.78;10258078;29;20039;-77
2022/04/28 13:39:18;;;;;;;3.55;3.25;;;;;;;20.06;38.84;103081.09;10370578;28;20034;-77
2022/04/28 13:44:19;;;;;;;6.25;4.80;;;;;;;19.48;37.19;103079.56;10379658;28;20617;-77
2022/04/28 13:49:28;;;;;;;13.57;5.35;;;;;;;18.20;40.24;103058.75;10364142;28;20397;-76
2022/04/28 13:54:28;;;;;;;6.97;6.28;;;;;;;17.52;40.30;103060.91;10383922;28;20030;-77
2022/04/28 13:59:29;;;;;;;8.13;5.25;;;;;;;17.09;42.88;103051.66;10364257;28;20034;-77
2022/04/28 14:04:30;;;;;;;8.65;5.30;;;;;;;17.85;42.80;103055.00;10365717;28;20041;-77
2022/04/28 14:09:31;;;;;;;4.90;4.47;;;;;;;18.91;41.18;103052.41;10391659;28;20030;-77
2022/04/28 14:14:31;;;;;;;6.93;5.47;;;;;;;17.42;42.60;103036.56;10391241;28;20450;-77
2022/04/28 14:19:35;;;;;;;5.28;4.78;;;;;;;17.79;44.05;103042.91;10386990;28;20030;-77
2022/04/28 14:24:36;;;;;;;6.82;5.57;;;;;;;18.10;42.93;103036.28;10381466;28;20081;-77
2022/04/28 14:29:39;;;;;;;7.45;5.30;;;;;;;17.99;42.62;103026.66;10380363;28;20033;-77
2022/04/28 14:34:40;;;;;;;5.63;5.20;;;;;;;18.15;42.54;103017.34;10378126;28;20125;-77
2022/04/28 14:39:40;;;;;;;5.03;4.53;;;;;;;18.09;42.32;103029.09;10379198;28;20041;-77
2022/04/28 14:44:41;;;;;;;20.00;7.13;;;;;;;17.84;43.68;103015.78;10346853;28;20049;-78
2022/04/28 14:55:04;;;;;;;8.38;6.25;;;;;;;17.23;45.73;103019.84;10379080;28;20045;-77
2022/04/28 15:00:06;;;;;;;6.32;5.32;;;;;;;17.24;46.39;103027.03;10363341;28;20050;-77
2022/04/28 15:05:07;;;;;;;11.13;4.45;;;;;;;16.94;46.77;103013.31;10377425;28;20406;-77
2022/04/28 15:10:08;;;;;;;5.95;5.35;;;;;;;17.27;46.94;103016.53;10345101;28;20041;-77
2022/04/28 15:15:09;;;;;;;8.40;6.60;;;;;;;16.89;46.57;103021.28;10361484;28;20088;-77
2022/04/28 15:20:11;;;;;;;9.13;6.15;;;;;;;16.59;48.35;103015.75;10345084;28;20034;-77
2022/04/28 15:25:13;;;;;;;7.47;6.07;;;;;;;16.42;47.91;103015.03;10345163;28;20041;-77
2022/04/28 15:30:13;;;;;;;5.40;5.00;;;;;;;15.98;49.49;103018.44;10355851;28;20054;-76
2022/04/28 15:35:14;;;;;;;6.05;5.55;;;;;;;16.26;49.79;103007.81;10361654;28;20125;-77
2022/04/28 15:40:16;;;;;;;8.88;5.85;;;;;;;16.33;49.82;103005.19;10362359;28;20037;-77
2022/04/28 15:45:17;;;;;;;9.80;5.47;;;;;;;16.30;49.73;103004.72;10345333;28;20054;-77
2022/04/28 15:50:19;;;;;;;14.43;6.60;;;;;;;15.89;50.62;103018.69;10343181;28;20030;-77
2022/04/28 15:55:20;;;;;;;23.48;6.65;;;;;;;15.57;50.95;103013.22;10359791;28;20030;-77
2022/04/28 16:00:20;;;;;;;14.40;6.60;;;;;;;15.35;51.68;103008.56;10376781;28;20378;-77
2022/04/28 16:05:21;;;;;;;9.57;5.40;;;;;;;15.27;51.97;103014.06;10377600;28;20029;-77
2022/04/28 16:10:21;;;;;;;8.05;5.10;;;;;;;15.02;53.84;103016.00;10360002;28;20057;-76
2022/04/28 16:15:21;;;;;;;8.68;4.63;;;;;;;14.78;54.35;103020.53;10342763;28;20065;-77
2022/04/28 16:20:22;;;;;;;7.00;6.15;;;;;;;14.61;54.76;103008.81;10375516;28;20034;-77
2022/04/28 16:25:22;;;;;;;11.48;6.28;;;;;;;14.56;55.57;103002.16;10359414;28;20044;-77
2022/04/28 16:30:23;;;;;;;7.32;5.95;;;;;;;14.37;55.40;103009.63;10376766;28;20486;-77
2022/04/28 16:35:25;;;;;;;7.18;5.38;;;;;;;14.30;57.54;103000.44;10358407;28;20113;-77
2022/04/28 16:40:27;;;;;;;9.23;6.05;;;;;;;14.16;58.75;102992.94;10374897;28;20088;-77
2022/04/28 16:45:27;;;;;;;8.73;6.10;;;;;;;14.15;59.07;102997.53;10375536;28;20057;-78
2022/04/28 16:50:28;;;;;;;7.55;5.50;;;;;;;14.03;59.67;103001.59;10357755;28;20393;-77
2022/04/28 16:55:28;;;;;;;9.05;5.75;;;;;;;14.00;59.94;103004.66;10375511;28;20069;-77
2022/04/28 17:00:29;;;;;;;11.43;5.30;;;;;;;14.03;58.29;103006.22;10357957;28;20030;-76
2022/04/28 17:05:29;;;;;;;11.45;6.00;;;;;;;13.90;58.91;103010.28;10374775;28;20069;-76
2022/04/28 17:10:30;;;;;;;5.15;4.72;;;;;;;13.67;60.10;103012.78;10375598;28;20112;-77
2022/04/28 17:15:30;;;;;;;11.27;5.40;;;;;;;13.53;60.47;103005.28;10375480;28;20049;-76
2022/04/28 17:20:30;;;;;;;9.13;5.35;;;;;;;13.44;61.60;102998.94;10377045;28;20512;-77
2022/04/28 17:25:31;;;;;;;7.22;4.82;;;;;;;13.32;61.59;102999.41;10376421;28;20493;-77
2022/04/28 17:30:31;;;;;;;10.45;5.03;;;;;;;13.30;60.95;102994.13;10342596;28;20092;-76
2022/04/28 17:35:32;;;;;;;11.25;4.47;;;;;;;13.29;61.41;103006.03;10359009;28;20094;-76
2022/04/28 17:40:32;;;;;;;12.77;5.50;;;;;;;13.19;62.34;102989.81;10357785;28;20026;-77
2022/04/28 17:45:33;;;;;;;13.90;5.75;;;;;;;12.87;66.72;103001.38;10356858;28;20050;-76
2022/04/28 17:50:36;;;;;;;9.50;4.63;;;;;;;12.75;67.35;103003.50;10356817;28;20038;-76
2022/04/28 18:00:55;;;;;;;10.73;4.50;;;;;;;12.37;70.61;103006.66;10374484;28;20116;-76
2022/04/28 18:05:57;;;;;;;5.15;4.50;;;;;;;12.12;71.57;103013.72;10381779;28;20462;-76
2022/04/28 18:10:57;;;;;;;16.85;4.80;;;;;;;11.92;74.00;103021.19;10370169;28;20033;-76
2022/04/28 18:15:57;;;;;;;6.40;4.28;;;;;;;11.68;75.60;103009.03;10397329;28;20037;-76
2022/04/28 18:20:58;;;;;;;8.13;4.28;;;;;;;11.45;76.62;103021.31;10395194;28;20042;-75
2022/04/28 18:26:00;;;;;;;12.05;5.18;;;;;;;11.29;78.04;103025.53;10384384;28;20109;-76
2022/04/28 18:31:00;;;;;;;10.95;6.32;;;;;;;11.12;78.70;103026.31;10347388;28;20038;-76
2022/04/28 18:46:39;;;;;;;4.93;4.43;;;;;;;10.67;80.63;103046.88;10379363;28;20086;-76
2022/04/28 18:51:43;;;;;;;16.83;4.95;;;;;;;10.57;81.71;103066.84;10380051;28;20074;-76
2022/04/28 18:56:43;;;;;;;6.95;4.57;;;;;;;10.45;81.25;103076.97;10379608;28;20061;-76
2022/04/28 19:01:45;;;;;;;6.07;4.28;;;;;;;10.30;82.38;103078.41;10361986;28;20040;-76
2022/04/28 19:06:46;;;;;;;16.15;6.32;;;;;;;10.27;80.26;103090.34;10379842;28;20146;-76
2022/04/28 19:11:47;;;;;;;9.55;4.65;;;;;;;10.14;81.86;103095.16;10378469;28;20068;-76
2022/04/28 19:16:48;;;;;;;8.05;5.70;;;;;;;9.90;84.44;103093.72;10377491;28;20390;-76
2022/04/28 19:21:48;;;;;;;9.55;5.15;;;;;;;9.72;85.39;103098.09;10376569;28;20034;-76
2022/04/28 19:26:49;;;;;;;12.45;5.40;;;;;;;9.58;86.91;103098.47;10361098;28;20406;-76
2022/04/28 19:31:49;;;;;;;8.60;5.35;;;;;;;9.53;86.74;103098.88;10361839;28;20048;-76
2022/04/28 19:36:53;;;;;;;9.82;6.13;;;;;;;9.38;88.18;103093.00;10378240;28;20034;-76
2022/04/28 19:41:55;;;;;;;11.82;5.20;;;;;;;9.23;90.27;103100.59;10376218;28;20092;-76
2022/04/28 19:46:55;;;;;;;6.97;6.07;;;;;;;9.15;90.02;103096.84;10359788;28;20516;-76
2022/04/28 19:52:00;;;;;;;11.07;6.93;;;;;;;9.07;89.80;103103.78;10360022;28;20116;-76
2022/04/28 19:57:00;;;;;;;16.10;6.35;;;;;;;9.06;89.05;103096.69;10345421;28;20105;-76
2022/04/28 20:02:02;;;;;;;16.50;6.32;;;;;;;8.94;91.17;103086.09;10360321;28;20493;-75
2022/04/28 20:07:05;;;;;;;16.25;5.78;;;;;;;8.97;89.55;103097.47;10375395;28;20470;-75
2022/04/28 20:12:07;;;;;;;12.35;6.13;;;;;;;8.84;91.19;103102.25;10376916;28;20037;-75
2022/04/28 20:17:08;;;;;;;12.88;6.97;;;;;;;8.83;91.21;103097.78;10376731;28;20038;-76
2022/04/28 20:22:10;;;;;;;13.38;8.52;;;;;;;8.85;90.38;103103.94;10360077;28;20533;-76
2022/04/28 20:27:11;;;;;;;8.10;6.65;;;;;;;8.79;90.80;103094.50;10358528;28;20045;-76
2022/04/28 20:32:12;;;;;;;9.30;6.90;;;;;;;8.71;90.67;103086.22;10374649;28;20367;-77
2022/04/28 20:37:12;;;;;;;9.35;6.63;;;;;;;8.68;91.97;103093.72;10374662;28;20030;-76
2022/04/28 20:42:13;;;;;;;11.63;7.20;;;;;;;8.69;90.04;103098.13;10376025;28;20038;-75
2022/04/28 20:47:13;;;;;;;10.27;7.75;;;;;;;8.68;89.87;103099.09;10374049;28;20137;-76
2022/04/28 20:52:14;;;;;;;7.63;6.25;;;;;;;8.71;89.32;103115.94;10376165;28;20533;-77
2022/04/28 20:57:14;;;;;;;9.02;7.30;;;;;;;8.77;87.76;103107.28;10365426;28;20064;-76
2022/04/28 21:02:15;;;;;;;13.48;7.82;;;;;;;8.70;92.57;103108.81;10375352;28;20040;-75
2022/04/28 21:07:15;;;;;;;7.60;6.85;;;;;;;8.71;91.36;103118.63;10387813;28;20049;-76
2022/04/28 21:12:15;;;;;;;14.82;7.35;;;;;;;8.74;89.82;103115.69;10376805;28;20397;-76
2022/04/28 21:17:16;;;;;;;7.25;6.65;;;;;;;8.75;87.65;103116.53;10357449;28;20389;-76
2022/04/28 21:22:16;;;;;;;9.85;6.85;;;;;;;8.71;87.27;103110.53;10357654;28;20045;-76
2022/04/28 21:27:17;;;;;;;11.95;6.93;;;;;;;8.71;85.29;103113.25;10374920;28;20493;-73
2022/04/28 21:32:19;;;;;;;9.00;7.65;;;;;;;8.58;91.69;103116.13;10375490;28;20072;-75
2022/04/28 21:37:20;;;;;;;13.63;7.72;;;;;;;8.60;90.60;103114.13;10374644;28;20033;-76
2022/04/28 21:42:21;;;;;;;12.88;7.82;;;;;;;8.57;90.21;103124.34;10358324;28;20030;-76
2022/04/28 21:47:21;;;;;;;10.00;7.90;;;;;;;8.54;89.10;103125.44;10364716;28;20081;-76
2022/04/28 21:52:23;;;;;;;13.00;8.30;;;;;;;8.49;89.14;103114.19;10382377;28;20041;-76
2022/04/28 21:57:23;;;;;;;9.18;7.25;;;;;;;8.47;89.12;103134.22;10380321;28;20066;-75
2022/04/28 22:02:25;;;;;;;8.27;7.47;;;;;;;8.45;89.43;103125.38;10365064;28;20041;-76
2022/04/28 22:12:45;;;;;;;12.32;8.68;;;;;;;8.36;92.61;103118.88;10386507;28;20529;-75
2022/04/28 22:17:48;;;;;;;10.23;7.85;;;;;;;8.38;93.05;103125.03;10374149;28;20034;-75
2022/04/28 22:22:48;;;;;;;13.43;7.78;;;;;;;8.35;91.36;103122.56;10375465;28;20038;-76
2022/04/28 22:27:48;;;;;;;21.75;7.75;;;;;;;8.24;93.99;103119.91;10389977;28;20080;-76
2022/04/28 22:32:49;;;;;;;21.08;9.15;;;;;;;8.14;96.37;103120.66;10389189;28;20037;-76
2022/04/28 22:37:50;;;;;;;10.65;8.40;;;;;;;7.96;100.00;103124.03;10362986;28;20033;-76
2022/04/28 22:42:50;;;;;;;12.88;7.05;;;;;;;8.04;94.92;103129.63;10346597;28;20029;-76
2022/04/28 22:47:50;;;;;;;15.07;7.53;;;;;;;8.01;92.83;103129.88;10378417;28;20058;-75
2022/04/28 22:52:51;;;;;;;16.48;7.03;;;;;;;7.96;93.08;103134.81;10378753;28;20482;-76
2022/04/28 22:57:51;;;;;;;13.68;8.05;;;;;;;7.81;97.77;103140.47;10379152;28;20108;-76
2022/04/28 23:02:52;;;;;;;9.23;7.15;;;;;;;7.82;93.91;103147.59;10345724;28;20118;-75
2022/04/28 23:07:52;;;;;;;11.48;7.43;;;;;;;7.75;93.77;103146.34;10361773;28;20034;-76
2022/04/28 23:12:53;;;;;;;22.80;7.72;;;;;;;7.71;95.21;103138.66;10361877;28;20386;-75
2022/04/28 23:17:53;;;;;;;12.25;7.35;;;;;;;7.70;93.06;103143.19;10361407;28;20066;-75
2022/04/28 23:22:53;;;;;;;8.52;7.68;;;;;;;7.62;93.52;103132.16;10380552;28;20033;-75
2022/04/28 23:27:54;;;;;;;9.30;6.53;;;;;;;7.59;96.16;103127.84;10361284;28;20037;-75
2022/04/28 23:32:55;;;;;;;14.95;7.85;;;;;;;7.61;95.86;103131.28;10360964;28;20534;-75
2022/04/28 23:43:15;;;;;;;8.70;7.80;;;;;;;7.60;97.27;103134.13;10392419;28;20045;-75
2022/04/28 23:48:16;;;;;;;12.38;7.35;;;;;;;7.64;96.06;103125.66;10395599;28;20050;-75
2022/04/28 23:58:35;;;;;;;17.77;7.47;;;;;;;7.52;99.95;103129.34;10376422;28;20458;-75
